createdAt,value
2023-04-24T00:00:34.118Z,15
2023-04-24T00:01:40.974Z,15
2023-04-24T00:02:48.864Z,14
2023-04-24T00:03:55.721Z,14
2023-04-24T00:05:02.621Z,15
2023-04-24T00:06:09.376Z,14
2023-04-24T00:07:16.238Z,13
2023-04-24T00:08:23.130Z,13
2023-04-24T00:09:31.033Z,14
2023-04-24T00:10:38.025Z,13
2023-04-24T00:11:44.844Z,12
2023-04-24T00:12:52.574Z,12
2023-04-24T00:14:00.206Z,13
2023-04-24T00:15:07.072Z,12
2023-04-24T00:16:14.284Z,12
2023-04-24T00:17:21.207Z,13
2023-04-24T00:18:28.090Z,12
2023-04-24T00:19:35.014Z,12
2023-04-24T00:20:41.953Z,11
2023-04-24T00:21:48.959Z,11
2023-04-24T00:22:58.174Z,11
2023-04-24T00:24:04.998Z,11
2023-04-24T00:25:11.817Z,11
2023-04-24T00:26:18.890Z,11
2023-04-24T00:27:25.723Z,10
2023-04-24T00:28:32.606Z,10
2023-04-24T00:29:39.469Z,10
2023-04-24T00:30:46.304Z,10
2023-04-24T00:31:54.344Z,10
2023-04-24T00:33:01.230Z,9
2023-04-24T00:34:07.999Z,9
2023-04-24T00:35:14.887Z,8
2023-04-24T00:36:21.755Z,9
2023-04-24T00:37:28.576Z,9
2023-04-24T00:38:36.627Z,8
2023-04-24T00:39:43.827Z,9
2023-04-24T00:40:50.316Z,9
2023-04-24T00:41:57.164Z,9
2023-04-24T00:43:04.005Z,9
2023-04-24T00:44:10.875Z,9
2023-04-24T00:45:17.843Z,9
2023-04-24T00:46:25.048Z,8
2023-04-24T00:47:31.984Z,9
2023-04-24T00:48:38.892Z,9
2023-04-24T00:49:46.623Z,8
2023-04-24T00:50:54.350Z,9
2023-04-24T00:52:01.190Z,8
2023-04-24T00:53:07.987Z,9
2023-04-24T00:54:14.804Z,8
2023-04-24T00:55:21.715Z,9
2023-04-24T00:56:28.564Z,9
2023-04-24T00:57:35.552Z,8
2023-04-24T00:58:42.419Z,9
2023-04-24T00:59:49.369Z,8
2023-04-24T01:00:56.259Z,8
2023-04-24T01:02:03.111Z,8
2023-04-24T01:03:10.824Z,8
2023-04-24T01:04:17.681Z,8
2023-04-24T01:05:24.533Z,9
2023-04-24T01:06:31.408Z,8
2023-04-24T01:07:38.222Z,8
2023-04-24T01:08:45.065Z,8
2023-04-24T01:09:52.136Z,7
2023-04-24T01:10:58.693Z,7
2023-04-24T01:12:05.617Z,7
2023-04-24T01:13:12.578Z,7
2023-04-24T01:14:19.495Z,7
2023-04-24T01:15:26.360Z,7
2023-04-24T01:16:33.390Z,8
2023-04-24T01:17:41.171Z,8
2023-04-24T01:18:48.945Z,7
2023-04-24T01:19:55.805Z,8
2023-04-24T01:21:02.825Z,8
2023-04-24T01:22:09.724Z,7
2023-04-24T01:23:16.489Z,7
2023-04-24T01:24:23.419Z,7
2023-04-24T01:25:30.517Z,7
2023-04-24T01:26:37.433Z,7
2023-04-24T01:27:44.346Z,7
2023-04-24T01:28:51.253Z,7
2023-04-24T01:29:58.033Z,8
2023-04-24T01:31:04.855Z,7
2023-04-24T01:32:11.723Z,7
2023-04-24T01:33:19.445Z,8
2023-04-24T01:34:26.304Z,7
2023-04-24T01:35:34.025Z,8
2023-04-24T01:36:40.951Z,8
2023-04-24T01:37:47.836Z,8
2023-04-24T01:38:54.781Z,8
2023-04-24T01:40:01.697Z,8
2023-04-24T01:41:11.423Z,9
2023-04-24T01:42:18.252Z,9
2023-04-24T01:43:25.099Z,9
2023-04-24T01:44:33.051Z,9
2023-04-24T01:45:39.832Z,9
2023-04-24T01:46:48.399Z,9
2023-04-24T01:47:55.316Z,8
2023-04-24T01:49:02.396Z,8
2023-04-24T01:50:09.261Z,8
2023-04-24T01:51:16.106Z,8
2023-04-24T01:52:22.936Z,8
2023-04-24T01:53:29.831Z,8
2023-04-24T01:54:36.589Z,9
2023-04-24T01:55:43.486Z,9
2023-04-24T01:56:50.329Z,8
2023-04-24T01:57:57.131Z,8
2023-04-24T01:59:03.966Z,9
2023-04-24T02:00:10.892Z,8
2023-04-24T02:01:18.923Z,9
2023-04-24T02:02:25.892Z,9
2023-04-24T02:03:32.986Z,8
2023-04-24T02:04:39.753Z,8
2023-04-24T02:05:46.651Z,8
2023-04-24T02:06:53.534Z,8
2023-04-24T02:08:00.357Z,8
2023-04-24T02:09:07.229Z,8
2023-04-24T02:10:14.122Z,8
2023-04-24T02:11:20.932Z,8
2023-04-24T02:12:27.858Z,8
2023-04-24T02:13:34.815Z,8
2023-04-24T02:14:41.708Z,9
2023-04-24T02:15:48.772Z,8
2023-04-24T02:16:55.485Z,8
2023-04-24T02:18:02.406Z,8
2023-04-24T02:19:09.310Z,8
2023-04-24T02:20:17.826Z,8
2023-04-24T02:21:25.626Z,8
2023-04-24T02:22:32.466Z,8
2023-04-24T02:23:39.535Z,8
2023-04-24T02:24:46.552Z,8
2023-04-24T02:25:53.380Z,8
2023-04-24T02:27:00.248Z,8
2023-04-24T02:28:07.256Z,8
2023-04-24T02:29:14.143Z,8
2023-04-24T02:30:20.933Z,8
2023-04-24T02:31:27.873Z,8
2023-04-24T02:32:34.656Z,7
2023-04-24T02:33:41.484Z,8
2023-04-24T02:34:48.316Z,7
2023-04-24T02:35:55.615Z,8
2023-04-24T02:37:02.506Z,7
2023-04-24T02:38:09.407Z,7
2023-04-24T02:39:16.225Z,7
2023-04-24T02:40:23.074Z,8
2023-04-24T02:41:29.972Z,7
2023-04-24T02:42:36.975Z,7
2023-04-24T02:43:43.849Z,7
2023-04-24T02:44:52.329Z,7
2023-04-24T02:45:59.202Z,7
2023-04-24T02:47:06.032Z,7
2023-04-24T02:48:13.228Z,7
2023-04-24T02:49:20.072Z,8
2023-04-24T02:50:26.914Z,8
2023-04-24T02:51:35.600Z,7
2023-04-24T02:52:42.450Z,7
2023-04-24T02:53:52.144Z,8
2023-04-24T02:54:59.034Z,8
2023-04-24T02:56:05.916Z,7
2023-04-24T02:57:13.621Z,8
2023-04-24T02:58:20.513Z,7
2023-04-24T02:59:27.390Z,7
2023-04-24T03:00:34.350Z,7
2023-04-24T03:01:41.190Z,7
2023-04-24T03:02:49.196Z,7
2023-04-24T03:03:56.984Z,7
2023-04-24T03:05:03.678Z,8
2023-04-24T03:06:10.627Z,7
2023-04-24T03:07:17.430Z,7
2023-04-24T03:08:24.315Z,7
2023-04-24T03:09:31.150Z,7
2023-04-24T03:10:37.954Z,6
2023-04-24T03:11:45.696Z,7
2023-04-24T03:12:52.581Z,7
2023-04-24T03:14:00.261Z,7
2023-04-24T03:15:09.159Z,7
2023-04-24T03:16:16.886Z,7
2023-04-24T03:17:23.637Z,7
2023-04-24T03:18:31.376Z,8
2023-04-24T03:19:38.177Z,7
2023-04-24T03:20:45.044Z,7
2023-04-24T03:21:51.824Z,8
2023-04-24T03:22:58.733Z,8
2023-04-24T03:24:05.572Z,7
2023-04-24T03:25:12.471Z,8
2023-04-24T03:26:19.386Z,7
2023-04-24T03:27:26.376Z,7
2023-04-24T03:28:33.309Z,7
2023-04-24T03:29:40.265Z,7
2023-04-24T03:30:47.808Z,7
2023-04-24T03:31:54.846Z,7
2023-04-24T03:33:02.517Z,7
2023-04-24T03:34:09.389Z,7
2023-04-24T03:35:16.123Z,7
2023-04-24T03:36:22.973Z,7
2023-04-24T03:37:29.866Z,7
2023-04-24T03:38:36.677Z,7
2023-04-24T03:39:43.784Z,7
2023-04-24T03:40:50.446Z,7
2023-04-24T03:41:57.446Z,7
2023-04-24T03:43:04.351Z,7
2023-04-24T03:44:11.165Z,7
2023-04-24T03:45:18.897Z,7
2023-04-24T03:46:25.899Z,8
2023-04-24T03:47:32.700Z,7
2023-04-24T03:48:39.394Z,8
2023-04-24T03:49:46.257Z,7
2023-04-24T03:50:53.835Z,8
2023-04-24T03:52:00.723Z,7
2023-04-24T03:53:07.525Z,7
2023-04-24T03:54:14.516Z,7
2023-04-24T03:55:21.509Z,7
2023-04-24T03:56:28.384Z,7
2023-04-24T03:57:35.232Z,7
2023-04-24T03:58:42.058Z,8
2023-04-24T03:59:49.796Z,7
2023-04-24T04:00:56.628Z,7
2023-04-24T04:02:03.556Z,7
2023-04-24T04:03:10.599Z,7
2023-04-24T04:04:18.263Z,8
2023-04-24T04:05:25.161Z,7
2023-04-24T04:06:33.704Z,8
2023-04-24T04:07:40.574Z,7
2023-04-24T04:08:47.586Z,8
2023-04-24T04:09:54.456Z,7
2023-04-24T04:11:05.439Z,7
2023-04-24T04:12:11.132Z,8
2023-04-24T04:13:18.046Z,8
2023-04-24T04:14:24.909Z,7
2023-04-24T04:15:31.718Z,7
2023-04-24T04:16:38.690Z,7
2023-04-24T04:17:45.498Z,7
2023-04-24T04:18:52.346Z,7
2023-04-24T04:19:59.223Z,7
2023-04-24T04:21:06.138Z,7
2023-04-24T04:22:13.041Z,7
2023-04-24T04:23:20.702Z,7
2023-04-24T04:24:27.735Z,7
2023-04-24T04:25:35.489Z,7
2023-04-24T04:26:43.250Z,7
2023-04-24T04:27:50.029Z,8
2023-04-24T04:28:56.870Z,7
2023-04-24T04:30:03.796Z,8
2023-04-24T04:31:10.959Z,8
2023-04-24T04:32:17.832Z,8
2023-04-24T04:33:24.624Z,8
2023-04-24T04:34:31.575Z,8
2023-04-24T04:35:38.474Z,8
2023-04-24T04:36:45.314Z,9
2023-04-24T04:37:53.840Z,8
2023-04-24T04:39:00.607Z,9
2023-04-24T04:40:07.469Z,8
2023-04-24T04:41:14.417Z,9
2023-04-24T04:42:21.179Z,9
2023-04-24T04:43:27.989Z,8
2023-04-24T04:44:34.820Z,8
2023-04-24T04:45:41.666Z,9
2023-04-24T04:46:48.448Z,9
2023-04-24T04:47:55.211Z,8
2023-04-24T04:49:02.095Z,8
2023-04-24T04:50:09.044Z,8
2023-04-24T04:51:16.821Z,9
2023-04-24T04:52:23.684Z,8
2023-04-24T04:53:30.560Z,8
2023-04-24T04:54:38.248Z,8
2023-04-24T04:55:45.052Z,8
2023-04-24T04:56:51.943Z,8
2023-04-24T04:58:00.502Z,8
2023-04-24T04:59:08.092Z,8
2023-04-24T05:00:14.915Z,8
2023-04-24T05:01:21.868Z,8
2023-04-24T05:02:28.744Z,8
2023-04-24T05:03:35.839Z,8
2023-04-24T05:04:42.662Z,8
2023-04-24T05:05:49.577Z,7
2023-04-24T05:06:56.392Z,8
2023-04-24T05:08:04.451Z,8
2023-04-24T05:09:12.575Z,7
2023-04-24T05:10:19.310Z,8
2023-04-24T05:11:26.138Z,7
2023-04-24T05:12:32.860Z,7
2023-04-24T05:13:40.476Z,7
2023-04-24T05:14:46.436Z,6
2023-04-24T05:15:53.200Z,6
2023-04-24T05:17:00.066Z,7
2023-04-24T05:18:07.073Z,6
2023-04-24T05:19:13.894Z,6
2023-04-24T05:20:20.723Z,6
2023-04-24T05:21:27.648Z,6
2023-04-24T05:22:34.446Z,6
2023-04-24T05:23:41.299Z,6
2023-04-24T05:24:48.057Z,6
2023-04-24T05:25:54.850Z,6
2023-04-24T05:27:01.620Z,6
2023-04-24T05:28:11.102Z,6
2023-04-24T05:29:17.967Z,6
2023-04-24T05:30:24.736Z,6
2023-04-24T05:31:31.605Z,7
2023-04-24T05:32:38.513Z,6
2023-04-24T05:33:45.470Z,6
2023-04-24T05:34:52.285Z,6
2023-04-24T05:35:59.163Z,7
2023-04-24T05:37:06.030Z,6
2023-04-24T05:38:12.843Z,6
2023-04-24T05:39:19.664Z,6
2023-04-24T05:40:26.443Z,6
2023-04-24T05:41:33.264Z,7
2023-04-24T05:42:40.058Z,7
2023-04-24T05:43:46.898Z,7
2023-04-24T05:44:54.177Z,7
2023-04-24T05:46:00.482Z,7
2023-04-24T05:47:07.251Z,6
2023-04-24T05:48:14.095Z,7
2023-04-24T05:49:20.916Z,6
2023-04-24T05:50:27.674Z,7
2023-04-24T05:51:34.482Z,7
2023-04-24T05:52:41.261Z,7
2023-04-24T05:53:48.125Z,7
2023-04-24T05:54:55.075Z,7
2023-04-24T05:56:02.030Z,7
2023-04-24T05:57:09.095Z,7
2023-04-24T05:58:16.030Z,7
2023-04-24T05:59:23.067Z,7
2023-04-24T06:00:29.973Z,7
2023-04-24T06:01:36.721Z,8
2023-04-24T06:02:43.659Z,7
2023-04-24T06:03:50.437Z,7
2023-04-24T06:04:57.208Z,7
2023-04-24T06:06:04.050Z,8
2023-04-24T06:07:10.877Z,8
2023-04-24T06:08:17.769Z,8
2023-04-24T06:09:24.586Z,8
2023-04-24T06:10:31.393Z,8
2023-04-24T06:11:38.269Z,7
2023-04-24T06:12:45.014Z,7
2023-04-24T06:13:51.876Z,8
2023-04-24T06:14:58.721Z,7
2023-04-24T06:16:05.685Z,7
2023-04-24T06:17:12.520Z,8
2023-04-24T06:18:19.619Z,7
2023-04-24T06:19:26.486Z,7
2023-04-24T06:20:33.349Z,7
2023-04-24T06:21:40.158Z,7
2023-04-24T06:22:47.024Z,7
2023-04-24T06:23:53.815Z,7
2023-04-24T06:25:00.674Z,8
2023-04-24T06:26:07.707Z,7
2023-04-24T06:27:15.799Z,6
2023-04-24T06:28:21.376Z,6
2023-04-24T06:29:28.172Z,6
2023-04-24T06:30:34.942Z,6
2023-04-24T06:31:41.774Z,6
2023-04-24T06:32:48.672Z,6
2023-04-24T06:33:55.467Z,6
2023-04-24T06:35:02.346Z,6
2023-04-24T06:36:09.409Z,6
2023-04-24T06:37:16.245Z,5
2023-04-24T06:38:23.125Z,5
2023-04-24T06:39:30.158Z,5
2023-04-24T06:40:36.882Z,5
2023-04-24T06:41:43.718Z,5
2023-04-24T06:42:50.467Z,5
2023-04-24T06:43:57.270Z,5
2023-04-24T06:45:04.063Z,5
2023-04-24T06:46:11.147Z,6
2023-04-24T06:47:17.923Z,5
2023-04-24T06:48:24.761Z,5
2023-04-24T06:49:31.566Z,5
2023-04-24T06:50:41.228Z,6
2023-04-24T06:51:48.038Z,5
2023-04-24T06:52:54.842Z,5
2023-04-24T06:54:01.840Z,5
2023-04-24T06:55:08.606Z,5
2023-04-24T06:56:15.520Z,5
2023-04-24T06:57:22.401Z,5
2023-04-24T06:58:29.228Z,5
2023-04-24T06:59:36.206Z,5
2023-04-24T07:00:43.283Z,5
2023-04-24T07:01:50.020Z,5
2023-04-24T07:02:59.246Z,5
2023-04-24T07:04:06.221Z,5
2023-04-24T07:05:12.816Z,6
2023-04-24T07:06:19.829Z,5
2023-04-24T07:07:26.683Z,5
2023-04-24T07:08:33.451Z,5
2023-04-24T07:09:40.360Z,5
2023-04-24T07:10:47.218Z,5
2023-04-24T07:11:54.132Z,5
2023-04-24T07:13:01.050Z,5
2023-04-24T07:14:07.977Z,4
2023-04-24T07:15:14.893Z,4
2023-04-24T07:16:21.804Z,4
2023-04-24T07:17:28.624Z,4
2023-04-24T07:18:35.401Z,4
2023-04-24T07:19:42.260Z,4
2023-04-24T07:20:48.968Z,4
2023-04-24T07:21:55.730Z,4
2023-04-24T07:23:02.538Z,4
2023-04-24T07:24:09.288Z,4
2023-04-24T07:25:16.126Z,4
2023-04-24T07:26:22.904Z,4
2023-04-24T07:27:29.717Z,3
2023-04-24T07:28:36.628Z,4
2023-04-24T07:29:43.476Z,3
2023-04-24T07:30:50.192Z,4
2023-04-24T07:31:57.287Z,3
2023-04-24T07:33:04.099Z,4
2023-04-24T07:34:10.824Z,4
2023-04-24T07:35:17.645Z,4
2023-04-24T07:36:24.483Z,4
2023-04-24T07:37:31.323Z,4
2023-04-24T07:38:38.602Z,4
2023-04-24T07:39:47.956Z,4
2023-04-24T07:40:54.783Z,4
2023-04-24T07:42:01.619Z,4
2023-04-24T07:43:08.491Z,3
2023-04-24T07:44:15.384Z,4
2023-04-24T07:45:22.153Z,4
2023-04-24T07:46:30.239Z,3
2023-04-24T07:47:37.027Z,4
2023-04-24T07:48:43.816Z,3
2023-04-24T07:49:50.547Z,4
2023-04-24T07:50:57.335Z,4
2023-04-24T07:52:04.139Z,4
2023-04-24T07:53:10.955Z,4
2023-04-24T07:54:17.813Z,4
2023-04-24T07:55:26.539Z,4
2023-04-24T07:56:31.507Z,4
2023-04-24T07:57:38.148Z,4
2023-04-24T07:58:44.951Z,4
2023-04-24T07:59:51.782Z,4
2023-04-24T08:00:58.530Z,4
2023-04-24T08:02:05.303Z,4
2023-04-24T08:03:12.332Z,3
2023-04-24T08:04:19.050Z,4
2023-04-24T08:05:26.047Z,4
2023-04-24T08:06:32.925Z,4
2023-04-24T08:07:39.675Z,3
2023-04-24T08:08:46.786Z,3
2023-04-24T08:09:53.611Z,3
2023-04-24T08:11:00.438Z,3
2023-04-24T08:12:07.341Z,4
2023-04-24T08:13:14.291Z,4
2023-04-24T08:14:21.261Z,4
2023-04-24T08:15:28.160Z,3
2023-04-24T08:16:35.585Z,3
2023-04-24T08:17:42.257Z,3
2023-04-24T08:18:49.081Z,3
2023-04-24T08:19:56.165Z,4
2023-04-24T08:21:02.970Z,3
2023-04-24T08:22:09.764Z,3
2023-04-24T08:23:16.614Z,4
2023-04-24T08:24:23.431Z,3
2023-04-24T08:25:30.254Z,4
2023-04-24T08:26:37.094Z,4
2023-04-24T08:27:43.870Z,4
2023-04-24T08:28:50.680Z,3
2023-04-24T08:29:57.520Z,3
2023-04-24T08:31:04.416Z,3
2023-04-24T08:32:11.240Z,3
2023-04-24T08:33:18.121Z,3
2023-04-24T08:34:27.786Z,3
2023-04-24T08:35:34.795Z,4
2023-04-24T08:36:46.869Z,4
2023-04-24T08:37:48.420Z,3
2023-04-24T08:38:55.304Z,3
2023-04-24T08:40:02.203Z,3
2023-04-24T08:41:14.186Z,3
2023-04-24T08:42:20.994Z,3
2023-04-24T08:43:28.234Z,3
2023-04-24T08:44:34.984Z,3
2023-04-24T08:45:41.897Z,3
2023-04-24T08:46:48.840Z,3
2023-04-24T08:47:55.479Z,4
2023-04-24T08:49:02.235Z,3
2023-04-24T08:50:09.025Z,4
2023-04-24T08:51:15.858Z,3
2023-04-24T08:52:22.651Z,3
2023-04-24T08:53:29.410Z,3
2023-04-24T08:54:36.234Z,3
2023-04-24T08:55:43.079Z,3
2023-04-24T08:56:49.962Z,3
2023-04-24T08:57:56.719Z,3
2023-04-24T08:59:03.541Z,3
2023-04-24T09:00:11.845Z,4
2023-04-24T09:01:17.641Z,4
2023-04-24T09:02:24.722Z,3
2023-04-24T09:03:31.592Z,3
2023-04-24T09:04:38.550Z,4
2023-04-24T09:05:45.402Z,4
2023-04-24T09:06:52.273Z,3
2023-04-24T09:07:59.061Z,3
2023-04-24T09:09:05.879Z,3
2023-04-24T09:10:12.859Z,3
2023-04-24T09:11:19.634Z,3
2023-04-24T09:12:26.436Z,3
2023-04-24T09:13:33.234Z,4
2023-04-24T09:14:40.099Z,4
2023-04-24T09:15:46.970Z,3
2023-04-24T09:16:53.879Z,3
2023-04-24T09:18:00.581Z,3
2023-04-24T09:19:07.517Z,4
2023-04-24T09:20:14.953Z,4
2023-04-24T09:21:21.900Z,3
2023-04-24T09:22:28.740Z,4
2023-04-24T09:23:35.505Z,3
2023-04-24T09:24:42.286Z,3
2023-04-24T09:25:49.063Z,4
2023-04-24T09:26:55.846Z,3
2023-04-24T09:28:02.658Z,3
2023-04-24T09:29:09.494Z,4
2023-04-24T09:30:19.225Z,3
2023-04-24T09:31:25.911Z,4
2023-04-24T09:32:32.716Z,4
2023-04-24T09:33:39.513Z,4
2023-04-24T09:34:51.486Z,3
2023-04-24T09:36:08.585Z,5
2023-04-24T09:37:15.537Z,4
2023-04-24T09:38:22.357Z,3
2023-04-24T09:39:34.314Z,3
2023-04-24T09:40:41.662Z,4
2023-04-24T09:41:47.861Z,4
2023-04-24T09:42:54.664Z,4
2023-04-24T09:44:01.461Z,4
2023-04-24T09:45:16.462Z,4
2023-04-24T09:46:23.087Z,4
2023-04-24T09:47:35.140Z,4
2023-04-24T09:48:41.922Z,3
2023-04-24T09:49:48.728Z,4
2023-04-24T09:50:55.459Z,4
2023-04-24T09:52:02.288Z,4
2023-04-24T09:53:09.273Z,4
2023-04-24T09:54:16.034Z,4
2023-04-24T09:55:25.624Z,4
2023-04-24T09:56:32.534Z,4
2023-04-24T09:57:39.484Z,4
2023-04-24T09:58:53.957Z,4
2023-04-24T10:00:00.726Z,4
2023-04-24T10:01:07.988Z,5
2023-04-24T10:02:14.827Z,4
2023-04-24T10:03:21.687Z,4
2023-04-24T10:04:28.494Z,4
2023-04-24T10:05:35.386Z,5
2023-04-24T10:06:42.269Z,4
2023-04-24T10:07:50.134Z,4
2023-04-24T10:08:56.020Z,4
2023-04-24T10:10:02.949Z,4
2023-04-24T10:11:09.956Z,5
2023-04-24T10:12:16.759Z,4
2023-04-24T10:13:23.776Z,4
2023-04-24T10:14:30.688Z,4
2023-04-24T10:15:37.565Z,4
2023-04-24T10:16:44.363Z,4
2023-04-24T10:17:51.333Z,4
2023-04-24T10:18:58.172Z,4
2023-04-24T10:20:05.007Z,4
2023-04-24T10:21:12.232Z,4
2023-04-24T10:22:18.858Z,4
2023-04-24T10:23:25.676Z,4
2023-04-24T10:24:32.552Z,4
2023-04-24T10:25:39.339Z,4
2023-04-24T10:26:46.104Z,4
2023-04-24T10:27:52.899Z,4
2023-04-24T10:29:02.483Z,5
2023-04-24T10:30:09.284Z,4
2023-04-24T10:31:16.273Z,4
2023-04-24T10:32:23.138Z,4
2023-04-24T10:33:29.825Z,4
2023-04-24T10:34:36.631Z,4
2023-04-24T10:35:43.454Z,4
2023-04-24T10:36:50.369Z,4
2023-04-24T10:37:57.106Z,4
2023-04-24T10:39:06.914Z,4
2023-04-24T10:40:13.768Z,5
2023-04-24T10:41:23.707Z,4
2023-04-24T10:42:30.595Z,4
2023-04-24T10:43:37.398Z,4
2023-04-24T10:44:44.224Z,4
2023-04-24T10:45:51.036Z,4
2023-04-24T10:47:06.133Z,4
2023-04-24T10:48:18.427Z,4
2023-04-24T10:49:25.103Z,4
2023-04-24T10:50:31.847Z,4
2023-04-24T10:51:47.058Z,4
2023-04-24T10:52:56.501Z,4
2023-04-24T10:54:03.288Z,4
2023-04-24T10:55:10.131Z,4
2023-04-24T10:56:16.883Z,4
2023-04-24T10:57:23.742Z,4
2023-04-24T10:58:30.504Z,4
2023-04-24T10:59:45.352Z,4
2023-04-24T11:00:52.165Z,4
2023-04-24T11:02:04.138Z,4
2023-04-24T11:03:11.032Z,4
2023-04-24T11:04:28.115Z,4
2023-04-24T11:05:34.949Z,5
2023-04-24T11:06:52.072Z,4
2023-04-24T11:07:59.094Z,4
2023-04-24T11:09:16.225Z,4
2023-04-24T11:10:23.075Z,5
2023-04-24T11:11:29.883Z,5
2023-04-24T11:12:36.754Z,4
2023-04-24T11:13:43.557Z,4
2023-04-24T11:14:58.550Z,4
2023-04-24T11:16:05.075Z,5
2023-04-24T11:17:17.033Z,5
2023-04-24T11:18:34.187Z,4
2023-04-24T11:19:40.937Z,5
2023-04-24T11:20:47.702Z,5
2023-04-24T11:21:54.496Z,4
2023-04-24T11:23:04.164Z,4
2023-04-24T11:24:10.930Z,4
2023-04-24T11:25:28.148Z,4
2023-04-24T11:26:34.939Z,4
2023-04-24T11:27:41.732Z,5
2023-04-24T11:28:48.544Z,6
2023-04-24T11:29:55.447Z,5
2023-04-24T11:31:02.209Z,5
2023-04-24T11:32:19.541Z,4
2023-04-24T11:33:29.129Z,5
2023-04-24T11:34:35.901Z,5
2023-04-24T11:35:42.693Z,5
2023-04-24T11:36:49.464Z,5
2023-04-24T11:39:03.092Z,5
2023-04-24T11:40:09.816Z,6
2023-04-24T11:41:16.590Z,8
2023-04-24T11:42:23.371Z,7
2023-04-24T11:43:30.163Z,6
2023-04-24T11:44:36.987Z,6
2023-04-24T11:45:43.806Z,5
2023-04-24T11:46:53.317Z,5
2023-04-24T11:48:00.302Z,5
2023-04-24T11:49:07.117Z,5
2023-04-24T11:50:14.057Z,5
2023-04-24T11:51:21.003Z,4
2023-04-24T11:52:27.941Z,5
2023-04-24T11:53:34.739Z,5
2023-04-24T11:54:41.604Z,5
2023-04-24T11:55:53.556Z,5
2023-04-24T11:57:00.292Z,5
2023-04-24T11:58:09.858Z,6
2023-04-24T11:59:16.603Z,5
2023-04-24T12:00:23.368Z,5
2023-04-24T12:01:33.348Z,6
2023-04-24T12:02:48.441Z,6
2023-04-24T12:03:55.357Z,6
2023-04-24T12:05:04.987Z,5
2023-04-24T12:06:11.714Z,5
2023-04-24T12:07:18.384Z,5
2023-04-24T12:08:25.142Z,5
2023-04-24T12:09:31.950Z,5
2023-04-24T12:10:49.215Z,5
2023-04-24T12:11:55.936Z,5
2023-04-24T12:13:02.675Z,5
2023-04-24T12:14:09.460Z,5
2023-04-24T12:15:16.249Z,5
2023-04-24T12:16:23.053Z,5
2023-04-24T12:17:29.851Z,5
2023-04-24T12:18:36.587Z,5
2023-04-24T12:19:45.975Z,5
2023-04-24T12:20:53.063Z,5
2023-04-24T12:22:00.922Z,5
2023-04-24T12:23:07.783Z,5
2023-04-24T12:24:14.766Z,5
2023-04-24T12:25:21.635Z,5
2023-04-24T12:26:28.477Z,5
2023-04-24T12:27:35.281Z,5
2023-04-24T12:28:42.152Z,5
2023-04-24T12:29:49.002Z,5
2023-04-24T12:30:55.903Z,5
2023-04-24T12:32:02.742Z,5
2023-04-24T12:33:09.575Z,5
2023-04-24T12:34:16.465Z,5
2023-04-24T12:35:25.972Z,5
2023-04-24T12:36:32.701Z,5
2023-04-24T12:37:39.566Z,5
2023-04-24T12:38:46.341Z,5
2023-04-24T12:39:53.080Z,7
2023-04-24T12:41:07.627Z,8
2023-04-24T12:42:14.628Z,6
2023-04-24T12:43:21.339Z,6
2023-04-24T12:44:28.257Z,6
2023-04-24T12:45:35.158Z,6
2023-04-24T12:46:41.984Z,6
2023-04-24T12:47:48.836Z,5
2023-04-24T12:48:55.568Z,4
2023-04-24T12:50:02.391Z,5
2023-04-24T12:51:09.471Z,5
2023-04-24T12:52:16.172Z,5
2023-04-24T12:53:22.946Z,5
2023-04-24T12:54:29.721Z,5
2023-04-24T12:55:36.451Z,5
2023-04-24T12:56:43.228Z,5
2023-04-24T12:57:50.115Z,6
2023-04-24T12:58:56.878Z,5
2023-04-24T13:00:04.001Z,5
2023-04-24T13:01:11.070Z,5
2023-04-24T13:02:17.826Z,5
2023-04-24T13:03:25.566Z,6
2023-04-24T13:04:32.652Z,5
2023-04-24T13:05:39.604Z,6
2023-04-24T13:06:46.663Z,5
2023-04-24T13:07:53.626Z,6
2023-04-24T13:09:00.505Z,6
2023-04-24T13:10:07.346Z,5
2023-04-24T13:11:14.176Z,6
2023-04-24T13:12:20.950Z,5
2023-04-24T13:13:30.650Z,6
2023-04-24T13:14:37.404Z,6
2023-04-24T13:15:44.232Z,6
2023-04-24T13:16:51.196Z,7
2023-04-24T13:17:57.996Z,6
2023-04-24T13:19:04.891Z,6
2023-04-24T13:20:11.814Z,5
2023-04-24T13:21:18.841Z,7
2023-04-24T13:22:25.670Z,7
2023-04-24T13:23:32.415Z,6
2023-04-24T13:24:39.964Z,7
2023-04-24T13:25:46.252Z,7
2023-04-24T13:26:53.292Z,7
2023-04-24T13:28:00.278Z,6
2023-04-24T13:29:07.076Z,7
2023-04-24T13:30:13.937Z,6
2023-04-24T13:31:20.781Z,5
2023-04-24T13:32:27.608Z,5
2023-04-24T13:33:34.354Z,5
2023-04-24T13:34:41.146Z,5
2023-04-24T13:35:47.870Z,5
2023-04-24T13:36:55.599Z,5
2023-04-24T13:38:02.425Z,5
2023-04-24T13:39:09.231Z,5
2023-04-24T13:40:16.457Z,5
2023-04-24T13:41:23.264Z,5
2023-04-24T13:42:30.021Z,5
2023-04-24T13:43:36.804Z,5
2023-04-24T13:44:43.625Z,6
2023-04-24T13:45:50.419Z,6
2023-04-24T13:46:57.154Z,6
2023-04-24T13:48:04.031Z,6
2023-04-24T13:49:10.797Z,5
2023-04-24T13:50:17.623Z,6
2023-04-24T13:51:24.497Z,5
2023-04-24T13:52:31.341Z,5
2023-04-24T13:53:38.124Z,5
2023-04-24T13:54:44.948Z,5
2023-04-24T13:55:51.808Z,5
2023-04-24T13:56:58.645Z,5
2023-04-24T13:58:05.470Z,5
2023-04-24T13:59:12.246Z,5
2023-04-24T14:00:19.072Z,5
2023-04-24T14:01:25.857Z,5
2023-04-24T14:02:32.823Z,5
2023-04-24T14:03:39.537Z,5
2023-04-24T14:04:46.428Z,5
2023-04-24T14:05:53.099Z,5
2023-04-24T14:07:00.085Z,5
2023-04-24T14:08:07.050Z,5
2023-04-24T14:09:13.711Z,5
2023-04-24T14:10:20.566Z,6
2023-04-24T14:11:27.366Z,5
2023-04-24T14:12:34.209Z,4
2023-04-24T14:13:42.373Z,5
2023-04-24T14:14:48.806Z,5
2023-04-24T14:15:55.675Z,5
2023-04-24T14:17:02.534Z,4
2023-04-24T14:18:09.333Z,5
2023-04-24T14:19:17.155Z,5
2023-04-24T14:20:23.945Z,4
2023-04-24T14:21:30.764Z,4
2023-04-24T14:22:37.555Z,4
2023-04-24T14:23:44.517Z,4
2023-04-24T14:24:51.216Z,4
2023-04-24T14:25:57.969Z,4
2023-04-24T14:27:04.821Z,4
2023-04-24T14:28:11.617Z,3
2023-04-24T14:29:18.448Z,4
2023-04-24T14:30:25.256Z,4
2023-04-24T14:31:32.193Z,4
2023-04-24T14:32:38.891Z,4
2023-04-24T14:33:45.820Z,4
2023-04-24T14:34:52.461Z,4
2023-04-24T14:35:59.268Z,4
2023-04-24T14:37:06.113Z,4
2023-04-24T14:38:12.856Z,4
2023-04-24T14:39:19.610Z,4
2023-04-24T14:41:33.348Z,4
2023-04-24T14:42:40.155Z,4
2023-04-24T14:43:47.302Z,4
2023-04-24T14:44:53.765Z,4
2023-04-24T14:46:00.590Z,4
2023-04-24T14:47:07.468Z,4
2023-04-24T14:48:14.123Z,4
2023-04-24T14:49:20.998Z,4
2023-04-24T14:50:27.914Z,5
2023-04-24T14:51:34.734Z,4
2023-04-24T14:52:41.515Z,4
2023-04-24T14:53:48.732Z,4
2023-04-24T14:54:55.709Z,4
2023-04-24T14:56:02.534Z,5
2023-04-24T14:57:09.544Z,5
2023-04-24T14:58:16.489Z,5
2023-04-24T14:59:23.380Z,4
2023-04-24T15:00:30.149Z,4
2023-04-24T15:01:36.968Z,6
2023-04-24T15:02:43.874Z,6
2023-04-24T15:03:50.742Z,7
2023-04-24T15:04:57.483Z,6
2023-04-24T15:06:04.065Z,7
2023-04-24T15:07:10.920Z,7
2023-04-24T15:08:17.729Z,7
2023-04-24T15:09:24.510Z,7
2023-04-24T15:10:31.402Z,6
2023-04-24T15:11:38.458Z,6
2023-04-24T15:12:45.260Z,8
2023-04-24T15:13:54.578Z,7
2023-04-24T15:15:01.312Z,8
2023-04-24T15:16:08.515Z,7
2023-04-24T15:17:15.368Z,7
2023-04-24T15:18:22.247Z,7
2023-04-24T15:19:28.995Z,6
2023-04-24T15:20:37.977Z,8
2023-04-24T15:21:45.719Z,8
2023-04-24T15:22:52.505Z,8
2023-04-24T15:23:59.256Z,9
2023-04-24T15:25:06.104Z,9
2023-04-24T15:26:12.929Z,7
2023-04-24T15:27:19.679Z,7
2023-04-24T15:28:26.493Z,7
2023-04-24T15:29:33.323Z,6
2023-04-24T15:30:40.069Z,7
2023-04-24T15:31:46.961Z,6
2023-04-24T15:32:53.741Z,6
2023-04-24T15:34:00.598Z,6
2023-04-24T15:35:09.548Z,6
2023-04-24T15:36:14.118Z,6
2023-04-24T15:37:20.911Z,6
2023-04-24T15:38:27.677Z,6
2023-04-24T15:39:34.493Z,6
2023-04-24T15:40:41.395Z,6
2023-04-24T15:41:48.190Z,6
2023-04-24T15:42:55.034Z,7
2023-04-24T15:44:01.874Z,7
2023-04-24T15:45:08.743Z,7
2023-04-24T15:46:15.689Z,6
2023-04-24T15:47:22.539Z,7
2023-04-24T15:48:29.347Z,7
2023-04-24T15:49:36.158Z,7
2023-04-24T15:50:42.955Z,7
2023-04-24T15:51:49.752Z,7
2023-04-24T15:52:56.601Z,6
2023-04-24T15:54:03.455Z,5
2023-04-24T15:55:10.263Z,5
2023-04-24T15:56:17.023Z,5
2023-04-24T15:57:23.777Z,5
2023-04-24T15:58:30.582Z,5
2023-04-24T15:59:38.581Z,5
2023-04-24T16:00:45.526Z,6
2023-04-24T16:01:52.345Z,6
2023-04-24T16:02:59.342Z,5
2023-04-24T16:04:06.146Z,6
2023-04-24T16:05:13.441Z,6
2023-04-24T16:06:20.195Z,6
2023-04-24T16:07:26.998Z,6
2023-04-24T16:08:33.815Z,6
2023-04-24T16:09:40.755Z,6
2023-04-24T16:10:47.967Z,6
2023-04-24T16:11:54.876Z,6
2023-04-24T16:13:01.676Z,6
2023-04-24T16:14:10.126Z,6
2023-04-24T16:15:15.238Z,6
2023-04-24T16:16:22.115Z,6
2023-04-24T16:17:29.038Z,5
2023-04-24T16:18:35.792Z,6
2023-04-24T16:19:42.616Z,6
2023-04-24T16:20:50.474Z,6
2023-04-24T16:21:56.284Z,6
2023-04-24T16:23:03.057Z,6
2023-04-24T16:24:09.829Z,6
2023-04-24T16:25:16.565Z,7
2023-04-24T16:26:28.498Z,6
2023-04-24T16:27:35.961Z,7
2023-04-24T16:28:42.798Z,8
2023-04-24T16:29:49.674Z,8
2023-04-24T16:30:56.882Z,8
2023-04-24T16:32:04.805Z,8
2023-04-24T16:33:11.637Z,8
2023-04-24T16:34:18.550Z,8
2023-04-24T16:35:25.397Z,9